OAL638 LMML-LFRB
Flight info
| Callsign | OAL638 |
|---|---|
| Flight time | 2h 37m |
| Altitude | 34000 |
| Route | GZO DCT SENTI DCT BULAR DCT XATOS DCT NIVDA DCT PADKO UY342 BULTO Y341 SALIN Y25 FJR DCT PIMQO DCT MANAK UT183 BAGAD DCT ROSPO DCT QPR |
| Aircraft | B77L/H-VGDW/C |
Departure
| Time | 2026-04-25 15:37 |
|---|---|
| Airport | Malta International Airport (LMML) |
Arrival
| Time | 2026-04-25 18:15 |
|---|---|
| Airport | Brest Bretagne airport (LFRB) |
| Time | Latitude | Longitude | Altitude | Speed | Heading |
|---|---|---|---|---|---|
| 2026-04-25 15:19 | 35.85487 | 14.48407 | 253 ft | 0 kts | 359° |
| 2026-04-25 15:25 | 35.85466 | 14.48407 | 253 ft | 3 kts | 359° |
| 2026-04-25 15:25 | 35.85446 | 14.48407 | 253 ft | 3 kts | 347° |
| 2026-04-25 15:26 | 35.85431 | 14.48416 | 253 ft | 0 kts | 315° |
| 2026-04-25 15:29 | 35.85445 | 14.48400 | 253 ft | 0 kts | 316° |
| 2026-04-25 15:30 | 35.85471 | 14.48368 | 253 ft | 17 kts | 314° |
| 2026-04-25 15:30 | 35.85570 | 14.48246 | 252 ft | 19 kts | 318° |
| 2026-04-25 15:30 | 35.85656 | 14.48128 | 253 ft | 21 kts | 273° |
| 2026-04-25 15:30 | 35.85583 | 14.48043 | 254 ft | 21 kts | 164° |
| 2026-04-25 15:31 | 35.85415 | 14.48164 | 254 ft | 34 kts | 138° |
| 2026-04-25 15:31 | 35.85265 | 14.48359 | 255 ft | 26 kts | 139° |
| 2026-04-25 15:31 | 35.85133 | 14.48513 | 256 ft | 26 kts | 136° |
| 2026-04-25 15:31 | 35.85004 | 14.48672 | 255 ft | 26 kts | 134° |
| 2026-04-25 15:32 | 35.84877 | 14.48832 | 253 ft | 26 kts | 134° |
| 2026-04-25 15:32 | 35.84749 | 14.48992 | 253 ft | 26 kts | 134° |
| 2026-04-25 15:32 | 35.84619 | 14.49148 | 254 ft | 26 kts | 136° |
| 2026-04-25 15:33 | 35.84362 | 14.49464 | 255 ft | 26 kts | 135° |
| 2026-04-25 15:33 | 35.84233 | 14.49623 | 254 ft | 26 kts | 134° |
| 2026-04-25 15:33 | 35.84107 | 14.49784 | 252 ft | 26 kts | 135° |
| 2026-04-25 15:33 | 35.83979 | 14.49942 | 253 ft | 26 kts | 135° |
| 2026-04-25 15:34 | 35.83850 | 14.50101 | 253 ft | 26 kts | 135° |
| 2026-04-25 15:34 | 35.83722 | 14.50259 | 254 ft | 26 kts | 135° |
| 2026-04-25 15:34 | 35.83599 | 14.50423 | 255 ft | 26 kts | 127° |
| 2026-04-25 15:34 | 35.83548 | 14.50556 | 253 ft | 26 kts | 102° |
| 2026-04-25 15:35 | 35.83469 | 14.50739 | 253 ft | 0 kts | 202° |
| 2026-04-25 15:36 | 35.83454 | 14.50590 | 253 ft | 0 kts | 311° |
| 2026-04-25 15:36 | 35.83485 | 14.50551 | 253 ft | 19 kts | 314° |
| 2026-04-25 15:37 | 35.83703 | 14.50280 | 254 ft | 86 kts | 315° |
| 2026-04-25 15:37 | 35.84354 | 14.49468 | 256 ft | 179 kts | 316° |
| 2026-04-25 15:37 | 35.85404 | 14.48300 | 696 ft | 212 kts | 320° |
| 2026-04-25 15:37 | 35.86402 | 14.47079 | 2029 ft | 192 kts | 307° |
| 2026-04-25 15:38 | 35.87204 | 14.45775 | 2942 ft | 197 kts | 305° |
| 2026-04-25 15:38 | 35.88081 | 14.44330 | 3184 ft | 224 kts | 306° |
| 2026-04-25 15:38 | 35.89077 | 14.42739 | 3700 ft | 238 kts | 307° |
| 2026-04-25 15:38 | 35.90116 | 14.41104 | 4358 ft | 250 kts | 308° |
| 2026-04-25 15:39 | 35.91213 | 14.39404 | 5153 ft | 255 kts | 309° |
| 2026-04-25 15:39 | 35.92325 | 14.37689 | 6035 ft | 257 kts | 309° |
| 2026-04-25 15:39 | 35.93465 | 14.35948 | 6768 ft | 264 kts | 310° |
| 2026-04-25 15:39 | 35.94638 | 14.34183 | 7558 ft | 267 kts | 310° |
| 2026-04-25 15:40 | 35.95821 | 14.32404 | 8403 ft | 269 kts | 310° |
| 2026-04-25 15:40 | 35.96207 | 14.31823 | 8664 ft | 271 kts | 310° |
| 2026-04-25 15:40 | 35.98225 | 14.28779 | 9981 ft | 276 kts | 310° |
| 2026-04-25 15:40 | 35.99443 | 14.26941 | 10572 ft | 286 kts | 310° |
| 2026-04-25 15:41 | 36.00756 | 14.24960 | 10773 ft | 311 kts | 310° |
| 2026-04-25 15:41 | 36.02182 | 14.22806 | 10974 ft | 336 kts | 310° |
| 2026-04-25 15:41 | 36.03714 | 14.20490 | 11228 ft | 359 kts | 310° |
| 2026-04-25 15:41 | 36.05343 | 14.18088 | 11857 ft | 369 kts | 311° |
| 2026-04-25 15:42 | 36.07038 | 14.15671 | 12580 ft | 375 kts | 312° |
| 2026-04-25 15:42 | 36.08763 | 14.13231 | 13403 ft | 379 kts | 312° |
| 2026-04-25 15:42 | 36.10507 | 14.10763 | 14191 ft | 383 kts | 312° |
| 2026-04-25 15:42 | 36.12272 | 14.08258 | 14889 ft | 388 kts | 312° |
| 2026-04-25 15:43 | 36.14053 | 14.05723 | 15586 ft | 393 kts | 312° |
| 2026-04-25 15:43 | 36.15851 | 14.03157 | 16282 ft | 397 kts | 312° |
| 2026-04-25 15:43 | 36.17671 | 14.00556 | 16965 ft | 402 kts | 312° |
| 2026-04-25 15:43 | 36.19511 | 13.97921 | 17632 ft | 407 kts | 312° |
| 2026-04-25 15:44 | 36.21369 | 13.95258 | 18288 ft | 411 kts | 312° |
| 2026-04-25 15:44 | 36.23252 | 13.92555 | 18885 ft | 416 kts | 312° |
| 2026-04-25 15:44 | 36.25126 | 13.89863 | 19486 ft | 419 kts | 312° |
| 2026-04-25 15:44 | 36.27038 | 13.87114 | 20083 ft | 423 kts | 311° |
| 2026-04-25 15:45 | 36.28962 | 13.84344 | 20677 ft | 426 kts | 311° |
| 2026-04-25 15:45 | 36.30911 | 13.81538 | 21274 ft | 430 kts | 311° |
| 2026-04-25 15:45 | 36.32874 | 13.78710 | 21816 ft | 434 kts | 311° |
| 2026-04-25 15:45 | 36.34178 | 13.76829 | 22197 ft | 436 kts | 311° |
| 2026-04-25 15:46 | 36.36842 | 13.72984 | 22964 ft | 441 kts | 311° |
| 2026-04-25 15:46 | 36.38849 | 13.70083 | 23519 ft | 445 kts | 311° |
| 2026-04-25 15:46 | 36.40880 | 13.67145 | 23948 ft | 450 kts | 311° |
| 2026-04-25 15:46 | 36.42926 | 13.64185 | 24423 ft | 453 kts | 311° |
| 2026-04-25 15:47 | 36.44980 | 13.61208 | 24918 ft | 456 kts | 311° |
| 2026-04-25 15:47 | 36.47054 | 13.58202 | 25393 ft | 458 kts | 310° |
| 2026-04-25 15:47 | 36.49134 | 13.55182 | 25841 ft | 462 kts | 310° |
| 2026-04-25 15:47 | 36.51228 | 13.52141 | 26274 ft | 465 kts | 310° |
| 2026-04-25 15:48 | 36.53338 | 13.49072 | 26715 ft | 468 kts | 310° |
| 2026-04-25 15:48 | 36.55463 | 13.45980 | 27166 ft | 471 kts | 310° |
| 2026-04-25 15:48 | 36.57601 | 13.42866 | 27609 ft | 474 kts | 310° |
| 2026-04-25 15:48 | 36.59750 | 13.39733 | 28048 ft | 477 kts | 310° |
| 2026-04-25 15:49 | 36.61875 | 13.36631 | 28452 ft | 479 kts | 310° |
| 2026-04-25 15:49 | 36.64076 | 13.33416 | 28857 ft | 482 kts | 310° |
| 2026-04-25 15:49 | 36.66229 | 13.30269 | 29218 ft | 485 kts | 310° |
| 2026-04-25 15:49 | 36.68423 | 13.27057 | 29578 ft | 488 kts | 310° |
| 2026-04-25 15:50 | 36.70629 | 13.23825 | 29971 ft | 490 kts | 310° |
| 2026-04-25 15:50 | 36.72835 | 13.20591 | 30421 ft | 489 kts | 310° |
| 2026-04-25 15:50 | 36.75027 | 13.17373 | 30971 ft | 484 kts | 310° |
| 2026-04-25 15:50 | 36.77202 | 13.14178 | 31544 ft | 480 kts | 310° |
| 2026-04-25 15:51 | 36.79349 | 13.11021 | 32033 ft | 477 kts | 310° |
| 2026-04-25 15:51 | 36.80773 | 13.08926 | 32369 ft | 475 kts | 310° |
| 2026-04-25 15:51 | 36.83630 | 13.04716 | 32854 ft | 474 kts | 310° |
| 2026-04-25 15:51 | 36.85757 | 13.01578 | 33223 ft | 474 kts | 310° |
| 2026-04-25 15:52 | 36.87886 | 12.98436 | 33586 ft | 473 kts | 309° |
| 2026-04-25 15:52 | 36.90005 | 12.95305 | 33986 ft | 472 kts | 309° |
| 2026-04-25 15:52 | 36.92127 | 12.92167 | 34136 ft | 474 kts | 309° |
| 2026-04-25 15:52 | 36.94252 | 12.89020 | 34118 ft | 473 kts | 309° |
| 2026-04-25 15:53 | 36.98487 | 12.82742 | 34113 ft | 471 kts | 309° |
| 2026-04-25 15:53 | 37.02699 | 12.76485 | 34116 ft | 470 kts | 309° |
| 2026-04-25 15:54 | 37.06882 | 12.70260 | 34121 ft | 470 kts | 309° |
| 2026-04-25 15:54 | 37.11086 | 12.63991 | 34121 ft | 470 kts | 309° |
| 2026-04-25 15:55 | 37.15295 | 12.57704 | 34115 ft | 471 kts | 309° |
| 2026-04-25 15:55 | 37.19510 | 12.51397 | 34126 ft | 472 kts | 309° |
| 2026-04-25 15:56 | 37.23729 | 12.45071 | 34122 ft | 472 kts | 309° |
| 2026-04-25 15:56 | 37.27945 | 12.38737 | 34120 ft | 473 kts | 309° |
| 2026-04-25 15:57 | 37.32136 | 12.32426 | 34115 ft | 473 kts | 309° |
| 2026-04-25 15:57 | 37.36352 | 12.26067 | 34118 ft | 473 kts | 309° |
| 2026-04-25 15:58 | 37.40563 | 12.19702 | 34118 ft | 473 kts | 309° |
| 2026-04-25 15:58 | 37.44775 | 12.13324 | 34117 ft | 474 kts | 309° |
| 2026-04-25 15:59 | 37.48981 | 12.06941 | 34122 ft | 474 kts | 309° |
| 2026-04-25 15:59 | 37.53187 | 12.00548 | 34129 ft | 474 kts | 309° |
| 2026-04-25 16:00 | 37.55998 | 11.96268 | 34117 ft | 474 kts | 309° |
| 2026-04-25 16:00 | 37.61590 | 11.87736 | 34113 ft | 474 kts | 309° |
| 2026-04-25 16:01 | 37.65790 | 11.81313 | 34128 ft | 474 kts | 309° |
| 2026-04-25 16:01 | 37.69982 | 11.74890 | 34116 ft | 474 kts | 309° |
| 2026-04-25 16:02 | 37.74173 | 11.68457 | 34116 ft | 474 kts | 309° |
| 2026-04-25 16:02 | 37.78331 | 11.62060 | 34119 ft | 474 kts | 309° |
| 2026-04-25 16:03 | 37.82512 | 11.55617 | 34131 ft | 474 kts | 309° |
| 2026-04-25 16:03 | 37.86688 | 11.49167 | 34122 ft | 474 kts | 309° |
| 2026-04-25 16:04 | 37.90862 | 11.42707 | 34117 ft | 474 kts | 309° |
| 2026-04-25 16:04 | 37.95030 | 11.36246 | 34126 ft | 474 kts | 309° |
| 2026-04-25 16:05 | 37.99197 | 11.29773 | 34135 ft | 473 kts | 309° |
| 2026-04-25 16:06 | 38.05436 | 11.20057 | 34126 ft | 473 kts | 309° |
| 2026-04-25 16:06 | 38.09591 | 11.13569 | 34128 ft | 473 kts | 309° |
| 2026-04-25 16:07 | 38.13717 | 11.07115 | 34128 ft | 473 kts | 308° |
| 2026-04-25 16:07 | 38.17861 | 11.00618 | 34128 ft | 473 kts | 309° |
| 2026-04-25 16:08 | 38.22002 | 10.94113 | 34121 ft | 473 kts | 308° |
| 2026-04-25 16:08 | 38.26140 | 10.87601 | 34126 ft | 473 kts | 308° |
| 2026-04-25 16:09 | 38.30268 | 10.81091 | 34126 ft | 472 kts | 308° |
| 2026-04-25 16:09 | 38.33511 | 10.75505 | 34122 ft | 472 kts | 303° |
| 2026-04-25 16:10 | 38.36516 | 10.69641 | 34126 ft | 472 kts | 302° |
| 2026-04-25 16:10 | 38.40650 | 10.61450 | 34124 ft | 472 kts | 303° |
| 2026-04-25 16:11 | 38.44230 | 10.54427 | 34123 ft | 472 kts | 303° |
| 2026-04-25 16:11 | 38.47820 | 10.47424 | 34124 ft | 472 kts | 303° |
| 2026-04-25 16:12 | 38.51414 | 10.40412 | 34123 ft | 472 kts | 303° |
| 2026-04-25 16:12 | 38.55001 | 10.33397 | 34122 ft | 472 kts | 303° |
| 2026-04-25 16:13 | 38.58579 | 10.26381 | 34124 ft | 472 kts | 303° |
| 2026-04-25 16:13 | 38.62157 | 10.19347 | 34123 ft | 472 kts | 303° |
| 2026-04-25 16:14 | 38.65730 | 10.12310 | 34126 ft | 472 kts | 303° |
| 2026-04-25 16:14 | 38.69299 | 10.05263 | 34127 ft | 472 kts | 303° |
| 2026-04-25 16:15 | 38.72844 | 9.98252 | 34126 ft | 471 kts | 303° |
| 2026-04-25 16:15 | 38.76401 | 9.91198 | 34124 ft | 471 kts | 303° |
| 2026-04-25 16:16 | 38.79955 | 9.84137 | 34121 ft | 471 kts | 303° |
| 2026-04-25 16:16 | 38.83506 | 9.77064 | 34126 ft | 471 kts | 303° |
| 2026-04-25 16:17 | 38.87052 | 9.69988 | 34124 ft | 472 kts | 303° |
| 2026-04-25 16:17 | 38.90595 | 9.62901 | 34121 ft | 472 kts | 303° |
| 2026-04-25 16:18 | 38.94135 | 9.55804 | 34125 ft | 472 kts | 303° |
| 2026-04-25 16:18 | 38.97676 | 9.48691 | 34122 ft | 472 kts | 303° |
| 2026-04-25 16:19 | 39.01214 | 9.41568 | 34125 ft | 472 kts | 303° |
| 2026-04-25 16:19 | 39.04742 | 9.34448 | 34119 ft | 472 kts | 303° |
| 2026-04-25 16:20 | 39.10033 | 9.23741 | 34113 ft | 472 kts | 303° |
| 2026-04-25 16:21 | 39.15288 | 9.13070 | 34103 ft | 472 kts | 303° |
| 2026-04-25 16:21 | 39.18803 | 9.05913 | 34106 ft | 472 kts | 303° |
| 2026-04-25 16:22 | 39.22312 | 8.98752 | 34104 ft | 472 kts | 303° |
| 2026-04-25 16:22 | 39.25818 | 8.91580 | 34102 ft | 473 kts | 303° |
| 2026-04-25 16:23 | 39.29321 | 8.84400 | 34102 ft | 473 kts | 303° |
| 2026-04-25 16:23 | 39.32824 | 8.77203 | 34104 ft | 473 kts | 303° |
| 2026-04-25 16:24 | 39.36318 | 8.70009 | 34111 ft | 473 kts | 303° |
| 2026-04-25 16:24 | 39.39809 | 8.62803 | 34113 ft | 473 kts | 303° |
| 2026-04-25 16:25 | 39.43297 | 8.55587 | 34120 ft | 473 kts | 303° |
| 2026-04-25 16:25 | 39.46777 | 8.48369 | 34118 ft | 473 kts | 303° |
| 2026-04-25 16:26 | 39.50229 | 8.41198 | 34127 ft | 472 kts | 303° |
| 2026-04-25 16:26 | 39.53702 | 8.33965 | 34121 ft | 472 kts | 303° |
| 2026-04-25 16:27 | 39.57166 | 8.26733 | 34120 ft | 472 kts | 303° |
| 2026-04-25 16:27 | 39.60622 | 8.19500 | 34121 ft | 472 kts | 303° |
| 2026-04-25 16:28 | 39.64078 | 8.12251 | 34121 ft | 472 kts | 303° |
| 2026-04-25 16:28 | 39.67538 | 8.05014 | 34124 ft | 471 kts | 305° |
| 2026-04-25 16:29 | 39.71796 | 7.98589 | 34131 ft | 469 kts | 318° |
| 2026-04-25 16:29 | 39.76976 | 7.93481 | 34133 ft | 468 kts | 327° |
| 2026-04-25 16:30 | 39.82316 | 7.88744 | 34118 ft | 468 kts | 326° |
| 2026-04-25 16:30 | 39.87677 | 7.83928 | 34116 ft | 469 kts | 326° |
| 2026-04-25 16:31 | 39.93048 | 7.79063 | 34129 ft | 469 kts | 326° |
| 2026-04-25 16:31 | 39.98417 | 7.74180 | 34125 ft | 470 kts | 326° |
| 2026-04-25 16:32 | 40.03756 | 7.69315 | 34118 ft | 471 kts | 326° |
| 2026-04-25 16:32 | 40.09125 | 7.64414 | 34113 ft | 471 kts | 326° |
| 2026-04-25 16:33 | 40.14499 | 7.59500 | 34122 ft | 471 kts | 326° |
| 2026-04-25 16:33 | 40.19870 | 7.54578 | 34122 ft | 471 kts | 326° |
| 2026-04-25 16:34 | 40.25204 | 7.49681 | 34119 ft | 471 kts | 326° |
| 2026-04-25 16:34 | 40.30569 | 7.44746 | 34122 ft | 471 kts | 326° |
| 2026-04-25 16:35 | 40.35057 | 7.40610 | 34122 ft | 471 kts | 326° |
| 2026-04-25 16:35 | 40.41295 | 7.34850 | 34124 ft | 471 kts | 326° |
| 2026-04-25 16:36 | 40.46632 | 7.29911 | 34123 ft | 471 kts | 326° |
| 2026-04-25 16:36 | 40.51992 | 7.24941 | 34123 ft | 471 kts | 326° |
| 2026-04-25 16:37 | 40.57353 | 7.19960 | 34122 ft | 472 kts | 326° |
| 2026-04-25 16:37 | 40.62712 | 7.14971 | 34125 ft | 472 kts | 326° |
| 2026-04-25 16:38 | 40.68073 | 7.09970 | 34127 ft | 472 kts | 326° |
| 2026-04-25 16:38 | 40.73434 | 7.04960 | 34127 ft | 473 kts | 326° |
| 2026-04-25 16:39 | 40.78792 | 6.99941 | 34122 ft | 473 kts | 326° |
| 2026-04-25 16:39 | 40.84156 | 6.94908 | 34118 ft | 473 kts | 326° |
| 2026-04-25 16:40 | 40.89519 | 6.89864 | 34122 ft | 473 kts | 326° |
| 2026-04-25 16:40 | 40.94885 | 6.84807 | 34125 ft | 474 kts | 326° |
| 2026-04-25 16:41 | 41.00256 | 6.79736 | 34125 ft | 474 kts | 326° |
| 2026-04-25 16:41 | 41.08269 | 6.72149 | 34123 ft | 474 kts | 326° |
| 2026-04-25 16:42 | 41.13638 | 6.67053 | 34120 ft | 475 kts | 325° |
| 2026-04-25 16:42 | 41.19011 | 6.61943 | 34118 ft | 475 kts | 325° |
| 2026-04-25 16:43 | 41.24449 | 6.56949 | 34119 ft | 474 kts | 330° |
| 2026-04-25 16:43 | 41.30340 | 6.53166 | 34120 ft | 473 kts | 337° |
| 2026-04-25 16:44 | 41.36400 | 6.49598 | 34116 ft | 473 kts | 337° |
| 2026-04-25 16:44 | 41.42375 | 6.46022 | 34116 ft | 474 kts | 336° |
| 2026-04-25 16:45 | 41.48380 | 6.42395 | 34114 ft | 474 kts | 336° |
| 2026-04-25 16:45 | 41.54392 | 6.38750 | 34115 ft | 474 kts | 336° |
| 2026-04-25 16:46 | 41.60402 | 6.35100 | 34113 ft | 475 kts | 336° |
| 2026-04-25 16:46 | 41.64393 | 6.32672 | 34112 ft | 475 kts | 336° |
| 2026-04-25 16:47 | 41.72406 | 6.27790 | 34114 ft | 475 kts | 336° |
| 2026-04-25 16:47 | 41.78429 | 6.24111 | 34112 ft | 476 kts | 336° |
| 2026-04-25 16:48 | 41.84459 | 6.20420 | 34107 ft | 476 kts | 336° |
| 2026-04-25 16:48 | 41.90480 | 6.16727 | 34109 ft | 476 kts | 336° |
| 2026-04-25 16:49 | 41.96505 | 6.13024 | 34100 ft | 476 kts | 336° |
| 2026-04-25 16:49 | 42.02532 | 6.09312 | 34117 ft | 476 kts | 336° |
| 2026-04-25 16:50 | 42.08558 | 6.05592 | 34097 ft | 476 kts | 336° |
| 2026-04-25 16:50 | 42.14580 | 6.01868 | 34093 ft | 477 kts | 336° |
| 2026-04-25 16:51 | 42.20608 | 5.98132 | 34091 ft | 477 kts | 336° |
| 2026-04-25 16:51 | 42.24605 | 5.95650 | 34105 ft | 477 kts | 336° |
| 2026-04-25 16:52 | 42.32636 | 5.90652 | 34106 ft | 477 kts | 336° |
| 2026-04-25 16:52 | 42.38667 | 5.86891 | 34101 ft | 477 kts | 336° |
| 2026-04-25 16:53 | 42.47713 | 5.81234 | 34097 ft | 478 kts | 336° |
| 2026-04-25 16:54 | 42.53748 | 5.77449 | 34092 ft | 478 kts | 336° |
| 2026-04-25 16:54 | 42.59788 | 5.73654 | 34073 ft | 478 kts | 336° |
| 2026-04-25 16:55 | 42.65834 | 5.69846 | 34089 ft | 478 kts | 336° |
| 2026-04-25 16:55 | 42.71878 | 5.66031 | 34084 ft | 479 kts | 336° |
| 2026-04-25 16:56 | 42.77881 | 5.62234 | 34079 ft | 479 kts | 336° |
| 2026-04-25 16:56 | 42.83933 | 5.58398 | 34081 ft | 480 kts | 336° |
| 2026-04-25 16:57 | 42.89990 | 5.54550 | 34081 ft | 481 kts | 335° |
| 2026-04-25 16:57 | 42.96061 | 5.50685 | 34076 ft | 481 kts | 335° |
| 2026-04-25 16:58 | 43.02134 | 5.46810 | 34073 ft | 482 kts | 335° |
| 2026-04-25 16:58 | 43.08207 | 5.42926 | 34067 ft | 482 kts | 335° |
| 2026-04-25 16:59 | 43.13299 | 5.39663 | 34069 ft | 482 kts | 335° |
| 2026-04-25 16:59 | 43.19268 | 5.35647 | 34030 ft | 478 kts | 326° |
| 2026-04-25 16:59 | 43.21725 | 5.32601 | 34057 ft | 478 kts | 307° |
| 2026-04-25 17:00 | 43.23386 | 5.28668 | 34066 ft | 478 kts | 292° |
| 2026-04-25 17:00 | 43.24282 | 5.24280 | 34052 ft | 478 kts | 278° |
| 2026-04-25 17:00 | 43.24663 | 5.19754 | 34066 ft | 478 kts | 276° |
| 2026-04-25 17:01 | 43.25439 | 5.10669 | 34048 ft | 481 kts | 277° |
| 2026-04-25 17:01 | 43.26312 | 5.01538 | 34049 ft | 484 kts | 278° |
| 2026-04-25 17:02 | 43.27202 | 4.92379 | 34052 ft | 484 kts | 278° |
| 2026-04-25 17:02 | 43.27800 | 4.83170 | 34047 ft | 484 kts | 275° |
| 2026-04-25 17:03 | 43.28665 | 4.74060 | 34040 ft | 480 kts | 287° |
| 2026-04-25 17:03 | 43.31111 | 4.65616 | 34044 ft | 475 kts | 300° |
| 2026-04-25 17:04 | 43.34377 | 4.57747 | 34048 ft | 473 kts | 300° |
| 2026-04-25 17:04 | 43.37543 | 4.49830 | 34043 ft | 472 kts | 300° |
| 2026-04-25 17:05 | 43.40671 | 4.41875 | 34051 ft | 474 kts | 299° |
| 2026-04-25 17:05 | 43.45305 | 4.29917 | 34048 ft | 475 kts | 299° |
| 2026-04-25 17:06 | 43.48413 | 4.21883 | 34050 ft | 475 kts | 299° |
| 2026-04-25 17:06 | 43.51508 | 4.13869 | 34047 ft | 474 kts | 299° |
| 2026-04-25 17:07 | 43.54601 | 4.05837 | 34048 ft | 473 kts | 299° |
| 2026-04-25 17:07 | 43.57763 | 3.97885 | 34051 ft | 472 kts | 303° |
| 2026-04-25 17:08 | 43.61737 | 3.90729 | 34058 ft | 470 kts | 311° |
| 2026-04-25 17:08 | 43.65924 | 3.83800 | 34045 ft | 470 kts | 310° |
| 2026-04-25 17:09 | 43.70051 | 3.76881 | 34042 ft | 469 kts | 310° |
| 2026-04-25 17:09 | 43.74212 | 3.69847 | 34047 ft | 469 kts | 310° |
| 2026-04-25 17:10 | 43.78304 | 3.62906 | 34050 ft | 468 kts | 309° |
| 2026-04-25 17:10 | 43.82415 | 3.55915 | 34050 ft | 467 kts | 309° |
| 2026-04-25 17:11 | 43.86511 | 3.48937 | 34059 ft | 467 kts | 309° |
| 2026-04-25 17:11 | 43.90602 | 3.41950 | 34063 ft | 466 kts | 309° |
| 2026-04-25 17:12 | 43.94677 | 3.34974 | 34066 ft | 465 kts | 309° |
| 2026-04-25 17:12 | 43.98748 | 3.27988 | 34069 ft | 465 kts | 309° |
| 2026-04-25 17:13 | 44.02123 | 3.22183 | 34079 ft | 464 kts | 309° |
| 2026-04-25 17:13 | 44.06860 | 3.14017 | 34092 ft | 464 kts | 308° |
| 2026-04-25 17:14 | 44.10908 | 3.07019 | 34097 ft | 464 kts | 308° |
| 2026-04-25 17:14 | 44.14949 | 3.00017 | 34099 ft | 464 kts | 308° |
| 2026-04-25 17:15 | 44.18988 | 2.93000 | 34103 ft | 464 kts | 308° |
| 2026-04-25 17:15 | 44.23023 | 2.85974 | 34114 ft | 464 kts | 308° |
| 2026-04-25 17:16 | 44.27033 | 2.78976 | 34121 ft | 465 kts | 308° |
| 2026-04-25 17:16 | 44.31075 | 2.71903 | 34124 ft | 466 kts | 308° |
| 2026-04-25 17:17 | 44.35118 | 2.64810 | 34136 ft | 467 kts | 308° |
| 2026-04-25 17:17 | 44.39168 | 2.57689 | 34134 ft | 468 kts | 307° |
| 2026-04-25 17:18 | 44.43222 | 2.50543 | 34134 ft | 469 kts | 307° |
| 2026-04-25 17:18 | 44.47267 | 2.43395 | 34129 ft | 469 kts | 307° |
| 2026-04-25 17:19 | 44.51311 | 2.36231 | 34133 ft | 468 kts | 307° |
| 2026-04-25 17:19 | 44.55349 | 2.29056 | 34139 ft | 468 kts | 307° |
| 2026-04-25 17:20 | 44.59376 | 2.21890 | 34129 ft | 468 kts | 307° |
| 2026-04-25 17:20 | 44.63374 | 2.14753 | 34130 ft | 468 kts | 307° |
| 2026-04-25 17:21 | 44.67415 | 2.07521 | 34124 ft | 467 kts | 307° |
| 2026-04-25 17:21 | 44.71388 | 2.00398 | 34129 ft | 466 kts | 307° |
| 2026-04-25 17:22 | 44.74728 | 1.94391 | 34135 ft | 465 kts | 306° |
| 2026-04-25 17:22 | 44.79359 | 1.86043 | 34120 ft | 465 kts | 306° |
| 2026-04-25 17:23 | 44.83335 | 1.78857 | 34124 ft | 464 kts | 306° |
| 2026-04-25 17:23 | 44.87298 | 1.71675 | 34128 ft | 464 kts | 306° |
| 2026-04-25 17:24 | 44.91264 | 1.64471 | 34127 ft | 464 kts | 306° |
| 2026-04-25 17:24 | 44.95195 | 1.57311 | 34126 ft | 464 kts | 306° |
| 2026-04-25 17:25 | 44.99148 | 1.50095 | 34132 ft | 465 kts | 306° |
| 2026-04-25 17:25 | 45.03099 | 1.42863 | 34131 ft | 465 kts | 306° |
| 2026-04-25 17:26 | 45.07053 | 1.35607 | 34130 ft | 466 kts | 306° |
| 2026-04-25 17:26 | 45.11001 | 1.28341 | 34121 ft | 466 kts | 305° |
| 2026-04-25 17:27 | 45.14954 | 1.21052 | 34123 ft | 467 kts | 305° |
| 2026-04-25 17:27 | 45.17576 | 1.16146 | 34123 ft | 467 kts | 304° |
| 2026-04-25 17:28 | 45.22637 | 1.06214 | 34122 ft | 467 kts | 303° |
| 2026-04-25 17:28 | 45.26420 | 0.98726 | 34128 ft | 467 kts | 303° |
| 2026-04-25 17:29 | 45.30216 | 0.91234 | 34131 ft | 467 kts | 303° |
| 2026-04-25 17:29 | 45.34015 | 0.83738 | 34134 ft | 468 kts | 303° |
| 2026-04-25 17:30 | 45.37814 | 0.76223 | 34133 ft | 468 kts | 303° |
| 2026-04-25 17:30 | 45.41605 | 0.68704 | 34136 ft | 468 kts | 303° |
| 2026-04-25 17:31 | 45.45376 | 0.61204 | 34136 ft | 468 kts | 303° |
| 2026-04-25 17:31 | 45.49190 | 0.53598 | 34142 ft | 468 kts | 303° |
| 2026-04-25 17:32 | 45.52944 | 0.46092 | 34141 ft | 468 kts | 302° |
| 2026-04-25 17:32 | 45.56718 | 0.38526 | 34146 ft | 468 kts | 303° |
| 2026-04-25 17:33 | 45.60484 | 0.30956 | 34156 ft | 467 kts | 302° |
| 2026-04-25 17:33 | 45.64243 | 0.23379 | 34160 ft | 466 kts | 302° |
| 2026-04-25 17:34 | 45.67987 | 0.15814 | 34160 ft | 466 kts | 303° |
| 2026-04-25 17:34 | 45.71726 | 0.08236 | 34156 ft | 465 kts | 303° |
| 2026-04-25 17:35 | 45.75450 | 0.00670 | 34150 ft | 465 kts | 303° |
| 2026-04-25 17:35 | 45.79150 | -0.06869 | 34151 ft | 465 kts | 302° |
| 2026-04-25 17:36 | 45.82861 | -0.14449 | 34143 ft | 464 kts | 302° |
| 2026-04-25 17:36 | 45.86555 | -0.22014 | 34143 ft | 462 kts | 302° |
| 2026-04-25 17:37 | 45.90234 | -0.29570 | 34135 ft | 461 kts | 302° |
| 2026-04-25 17:37 | 45.93900 | -0.37120 | 34129 ft | 460 kts | 302° |
| 2026-04-25 17:38 | 45.96321 | -0.42116 | 34130 ft | 460 kts | 302° |
| 2026-04-25 17:38 | 46.01207 | -0.52228 | 34127 ft | 460 kts | 302° |
| 2026-04-25 17:39 | 46.04854 | -0.59800 | 34119 ft | 460 kts | 303° |
| 2026-04-25 17:39 | 46.08500 | -0.67390 | 34122 ft | 461 kts | 303° |
| 2026-04-25 17:40 | 46.12144 | -0.74996 | 34130 ft | 461 kts | 303° |
| 2026-04-25 17:40 | 46.15768 | -0.82580 | 34138 ft | 462 kts | 303° |
| 2026-04-25 17:41 | 46.19424 | -0.90195 | 34138 ft | 462 kts | 306° |
| 2026-04-25 17:41 | 46.23756 | -0.97078 | 34148 ft | 464 kts | 316° |
| 2026-04-25 17:42 | 46.28789 | -1.02936 | 34154 ft | 465 kts | 320° |
| 2026-04-25 17:42 | 46.33865 | -1.08740 | 34146 ft | 465 kts | 320° |
| 2026-04-25 17:43 | 46.38920 | -1.14588 | 34144 ft | 464 kts | 320° |
| 2026-04-25 17:43 | 46.43954 | -1.20448 | 34140 ft | 464 kts | 320° |
| 2026-04-25 17:44 | 46.48987 | -1.26320 | 34129 ft | 463 kts | 320° |
| 2026-04-25 17:44 | 46.54001 | -1.32182 | 34131 ft | 462 kts | 321° |
| 2026-04-25 17:45 | 46.57315 | -1.36064 | 34130 ft | 462 kts | 321° |
| 2026-04-25 17:45 | 46.63583 | -1.44461 | 34139 ft | 460 kts | 313° |
| 2026-04-25 17:46 | 46.67981 | -1.51253 | 34128 ft | 460 kts | 313° |
| 2026-04-25 17:46 | 46.72389 | -1.58009 | 34131 ft | 460 kts | 314° |
| 2026-04-25 17:47 | 46.76812 | -1.64748 | 34124 ft | 460 kts | 314° |
| 2026-04-25 17:47 | 46.80493 | -1.70361 | 34125 ft | 460 kts | 314° |
| 2026-04-25 17:48 | 46.87136 | -1.80520 | 34122 ft | 460 kts | 314° |
| 2026-04-25 17:49 | 46.91550 | -1.87296 | 34125 ft | 460 kts | 314° |
| 2026-04-25 17:49 | 46.95966 | -1.94093 | 34126 ft | 460 kts | 314° |
| 2026-04-25 17:50 | 47.00373 | -2.00889 | 34127 ft | 460 kts | 314° |
| 2026-04-25 17:50 | 47.04827 | -2.07598 | 34128 ft | 459 kts | 315° |
| 2026-04-25 17:51 | 47.09334 | -2.14247 | 34127 ft | 459 kts | 315° |
| 2026-04-25 17:51 | 47.13802 | -2.20868 | 34132 ft | 459 kts | 315° |
| 2026-04-25 17:52 | 47.18275 | -2.27541 | 34130 ft | 458 kts | 314° |
| 2026-04-25 17:52 | 47.22744 | -2.34232 | 34133 ft | 458 kts | 314° |
| 2026-04-25 17:53 | 47.27201 | -2.40925 | 34131 ft | 457 kts | 314° |
| 2026-04-25 17:53 | 47.31653 | -2.47626 | 34130 ft | 457 kts | 314° |
| 2026-04-25 17:54 | 47.36097 | -2.54333 | 34133 ft | 457 kts | 314° |
| 2026-04-25 17:54 | 47.40534 | -2.61045 | 34134 ft | 457 kts | 314° |
| 2026-04-25 17:55 | 47.44942 | -2.67731 | 33991 ft | 458 kts | 314° |
| 2026-04-25 17:55 | 47.47164 | -2.71107 | 33087 ft | 468 kts | 314° |
| 2026-04-25 17:55 | 47.49426 | -2.74549 | 32476 ft | 463 kts | 314° |
| 2026-04-25 17:55 | 47.51655 | -2.77946 | 32322 ft | 461 kts | 314° |
| 2026-04-25 17:56 | 47.53890 | -2.81356 | 32143 ft | 461 kts | 314° |
| 2026-04-25 17:56 | 47.58230 | -2.88196 | 31545 ft | 450 kts | 310° |
| 2026-04-25 17:56 | 47.60088 | -2.91917 | 30949 ft | 448 kts | 304° |
| 2026-04-25 17:57 | 47.61748 | -2.95797 | 30349 ft | 446 kts | 303° |
| 2026-04-25 17:57 | 47.63416 | -2.99659 | 29679 ft | 443 kts | 303° |
| 2026-04-25 17:57 | 47.65085 | -3.03479 | 29084 ft | 440 kts | 304° |
| 2026-04-25 17:57 | 47.66191 | -3.06000 | 28694 ft | 437 kts | 304° |
| 2026-04-25 17:58 | 47.68376 | -3.10973 | 28400 ft | 423 kts | 304° |
| 2026-04-25 17:58 | 47.69976 | -3.14616 | 27856 ft | 420 kts | 304° |
| 2026-04-25 17:58 | 47.71571 | -3.18253 | 27198 ft | 420 kts | 303° |
| 2026-04-25 17:58 | 47.73169 | -3.21902 | 26551 ft | 420 kts | 303° |
| 2026-04-25 17:59 | 47.74744 | -3.25505 | 26320 ft | 412 kts | 303° |
| 2026-04-25 17:59 | 47.76304 | -3.29079 | 26163 ft | 415 kts | 303° |
| 2026-04-25 17:59 | 47.77889 | -3.32716 | 26151 ft | 422 kts | 303° |
| 2026-04-25 17:59 | 47.79493 | -3.36400 | 26147 ft | 426 kts | 303° |
| 2026-04-25 18:00 | 47.81104 | -3.40108 | 26140 ft | 427 kts | 303° |
| 2026-04-25 18:00 | 47.82712 | -3.43814 | 26131 ft | 425 kts | 303° |
| 2026-04-25 18:00 | 47.84310 | -3.47500 | 26122 ft | 424 kts | 303° |
| 2026-04-25 18:00 | 47.85905 | -3.51187 | 26095 ft | 422 kts | 303° |
| 2026-04-25 18:01 | 47.87486 | -3.54847 | 25742 ft | 419 kts | 303° |
| 2026-04-25 18:01 | 47.89057 | -3.58487 | 25265 ft | 416 kts | 303° |
| 2026-04-25 18:01 | 47.90596 | -3.62055 | 24806 ft | 412 kts | 303° |
| 2026-04-25 18:01 | 47.92139 | -3.65639 | 24330 ft | 409 kts | 303° |
| 2026-04-25 18:02 | 47.93689 | -3.69244 | 23885 ft | 407 kts | 303° |
| 2026-04-25 18:02 | 47.95048 | -3.72899 | 23377 ft | 401 kts | 292° |
| 2026-04-25 18:02 | 47.95847 | -3.76797 | 22991 ft | 395 kts | 282° |
| 2026-04-25 18:02 | 47.96208 | -3.80852 | 22519 ft | 392 kts | 272° |
| 2026-04-25 18:03 | 47.96141 | -3.84878 | 22162 ft | 386 kts | 268° |
| 2026-04-25 18:03 | 47.96060 | -3.88846 | 21880 ft | 379 kts | 269° |
| 2026-04-25 18:03 | 47.96011 | -3.92766 | 21382 ft | 378 kts | 269° |
| 2026-04-25 18:03 | 47.95969 | -3.96685 | 20992 ft | 375 kts | 269° |
| 2026-04-25 18:04 | 47.95926 | -4.00571 | 20535 ft | 373 kts | 269° |
| 2026-04-25 18:04 | 47.95966 | -4.04409 | 20052 ft | 365 kts | 277° |
| 2026-04-25 18:04 | 47.96743 | -4.08013 | 19338 ft | 372 kts | 300° |
| 2026-04-25 18:04 | 47.98404 | -4.10965 | 18967 ft | 370 kts | 319° |
| 2026-04-25 18:05 | 48.00562 | -4.13035 | 18550 ft | 371 kts | 335° |
| 2026-04-25 18:05 | 48.03057 | -4.14094 | 17914 ft | 377 kts | 351° |
| 2026-04-25 18:05 | 48.05680 | -4.14051 | 17346 ft | 379 kts | 11° |
| 2026-04-25 18:05 | 48.08177 | -4.12928 | 16771 ft | 374 kts | 17° |
| 2026-04-25 18:06 | 48.10640 | -4.11686 | 16312 ft | 372 kts | 17° |
| 2026-04-25 18:06 | 48.13091 | -4.10487 | 15862 ft | 368 kts | 16° |
| 2026-04-25 18:06 | 48.15541 | -4.09311 | 15279 ft | 371 kts | 16° |
| 2026-04-25 18:06 | 48.18006 | -4.08143 | 14713 ft | 370 kts | 15° |
| 2026-04-25 18:07 | 48.20426 | -4.06998 | 14080 ft | 367 kts | 15° |
| 2026-04-25 18:07 | 48.22851 | -4.05857 | 13357 ft | 364 kts | 15° |
| 2026-04-25 18:07 | 48.25255 | -4.04731 | 12661 ft | 360 kts | 15° |
| 2026-04-25 18:07 | 48.27643 | -4.03607 | 12438 ft | 361 kts | 15° |
| 2026-04-25 18:08 | 48.30041 | -4.02477 | 12211 ft | 359 kts | 16° |
| 2026-04-25 18:08 | 48.32417 | -4.01359 | 12219 ft | 357 kts | 15° |
| 2026-04-25 18:08 | 48.34795 | -4.00242 | 12205 ft | 359 kts | 16° |
| 2026-04-25 18:08 | 48.37192 | -3.99114 | 11768 ft | 362 kts | 16° |
| 2026-04-25 18:09 | 48.39580 | -3.97988 | 11101 ft | 359 kts | 16° |
| 2026-04-25 18:09 | 48.41944 | -3.96877 | 10445 ft | 350 kts | 15° |
| 2026-04-25 18:09 | 48.44303 | -3.96339 | 9741 ft | 339 kts | 355° |
| 2026-04-25 18:09 | 48.45053 | -3.96487 | 9494 ft | 333 kts | 346° |
| 2026-04-25 18:10 | 48.48237 | -3.99168 | 8354 ft | 306 kts | 318° |
| 2026-04-25 18:10 | 48.49632 | -4.01500 | 7665 ft | 295 kts | 304° |
| 2026-04-25 18:10 | 48.50686 | -4.04091 | 6995 ft | 285 kts | 300° |
| 2026-04-25 18:10 | 48.51666 | -4.06698 | 6353 ft | 288 kts | 299° |
| 2026-04-25 18:11 | 48.52406 | -4.09475 | 5679 ft | 287 kts | 279° |
| 2026-04-25 18:11 | 48.52257 | -4.12362 | 5363 ft | 264 kts | 249° |
| 2026-04-25 18:11 | 48.51411 | -4.14603 | 4992 ft | 234 kts | 236° |
| 2026-04-25 18:11 | 48.50643 | -4.16701 | 4396 ft | 225 kts | 245° |
| 2026-04-25 18:12 | 48.50007 | -4.18847 | 3746 ft | 223 kts | 248° |
| 2026-04-25 18:12 | 48.49478 | -4.21029 | 3087 ft | 221 kts | 252° |
| 2026-04-25 18:12 | 48.48995 | -4.23182 | 2684 ft | 208 kts | 253° |
| 2026-04-25 18:12 | 48.48527 | -4.25284 | 2402 ft | 215 kts | 253° |
| 2026-04-25 18:13 | 48.48052 | -4.27377 | 2133 ft | 205 kts | 253° |
| 2026-04-25 18:13 | 48.47613 | -4.29321 | 1844 ft | 186 kts | 254° |
| 2026-04-25 18:13 | 48.47222 | -4.31055 | 1618 ft | 163 kts | 254° |
| 2026-04-25 18:14 | 48.46532 | -4.34120 | 1204 ft | 156 kts | 254° |
| 2026-04-25 18:14 | 48.46182 | -4.35675 | 976 ft | 156 kts | 254° |
| 2026-04-25 18:14 | 48.45835 | -4.37197 | 778 ft | 151 kts | 253° |
| 2026-04-25 18:14 | 48.45491 | -4.38718 | 565 ft | 153 kts | 253° |
| 2026-04-25 18:15 | 48.45155 | -4.40231 | 349 ft | 155 kts | 254° |
| 2026-04-25 18:15 | 48.44851 | -4.41593 | 334 ft | 99 kts | 249° |
| 2026-04-25 18:15 | 48.44700 | -4.42225 | 322 ft | 39 kts | 251° |
| 2026-04-25 18:15 | 48.44645 | -4.42505 | 313 ft | 18 kts | 265° |
| 2026-04-25 18:16 | 48.44623 | -4.42601 | 313 ft | 3 kts | 217° |
| 2026-04-25 18:16 | 48.44570 | -4.42760 | 307 ft | 22 kts | 253° |
| 2026-04-25 18:16 | 48.44490 | -4.43138 | 306 ft | 9 kts | 316° |
| 2026-04-25 18:17 | 48.44521 | -4.43065 | 306 ft | 18 kts | 82° |
| 2026-04-25 18:17 | 48.44567 | -4.42818 | 306 ft | 28 kts | 70° |
| 2026-04-25 18:17 | 48.44630 | -4.42536 | 313 ft | 28 kts | 71° |
| 2026-04-25 18:17 | 48.44682 | -4.42306 | 319 ft | 9 kts | 72° |
| 2026-04-25 18:18 | 48.44679 | -4.42214 | 321 ft | 10 kts | 133° |
| 2026-04-25 18:18 | 48.44613 | -4.42127 | 322 ft | 15 kts | 158° |
| 2026-04-25 18:18 | 48.44578 | -4.42102 | 324 ft | 7 kts | 154° |
| 2026-04-25 18:18 | 48.44498 | -4.42083 | 325 ft | 11 kts | 188° |
| 2026-04-25 18:19 | 48.44425 | -4.42104 | 326 ft | 0 kts | 191° |